createdAt,value
2017-02-10T00:00:34.028Z,0
2017-02-10T00:01:14.682Z,0
2017-02-10T00:01:57.372Z,0
2017-02-10T00:02:40.067Z,0
2017-02-10T00:03:25.539Z,0
2017-02-10T00:04:17.972Z,0
2017-02-10T00:04:58.599Z,0
2017-02-10T00:05:39.252Z,0
2017-02-10T00:06:19.898Z,0
2017-02-10T00:07:00.596Z,0
2017-02-10T00:07:41.206Z,0
2017-02-10T00:08:21.859Z,0
2017-02-10T00:09:02.517Z,0
2017-02-10T00:09:43.168Z,0
2017-02-10T00:10:23.816Z,0
2017-02-10T00:11:04.473Z,0
2017-02-10T00:11:45.124Z,0
2017-02-10T00:12:25.783Z,0
2017-02-10T00:13:06.428Z,0
2017-02-10T00:13:46.985Z,0
2017-02-10T00:14:27.669Z,0
2017-02-10T00:15:08.292Z,0
2017-02-10T00:15:48.937Z,0
2017-02-10T00:16:29.489Z,0
2017-02-10T00:17:10.111Z,0
2017-02-10T00:17:50.801Z,0
2017-02-10T00:18:31.448Z,0
2017-02-10T00:19:12.101Z,0
2017-02-10T00:19:52.755Z,0
2017-02-10T00:20:33.428Z,0
2017-02-10T00:21:14.059Z,0
2017-02-10T00:21:54.719Z,0
2017-02-10T00:22:35.475Z,0
2017-02-10T00:23:16.121Z,0
2017-02-10T00:23:56.776Z,0
2017-02-10T00:24:37.428Z,0
2017-02-10T00:25:18.079Z,0
2017-02-10T00:25:58.729Z,0
2017-02-10T00:26:39.385Z,0
2017-02-10T00:27:20.035Z,0
2017-02-10T00:28:00.691Z,0
2017-02-10T00:28:41.345Z,0
2017-02-10T00:29:22.005Z,0
2017-02-10T00:30:02.649Z,0
2017-02-10T00:30:43.299Z,0
2017-02-10T00:31:23.957Z,0
2017-02-10T00:32:04.616Z,0
2017-02-10T00:32:45.259Z,0
2017-02-10T00:33:25.840Z,0
2017-02-10T00:34:06.511Z,0
2017-02-10T00:34:47.229Z,0
2017-02-10T00:35:27.871Z,0
2017-02-10T00:36:08.420Z,0
2017-02-10T00:36:49.041Z,0
2017-02-10T00:37:29.727Z,0
2017-02-10T00:38:10.386Z,0
2017-02-10T00:38:50.942Z,0
2017-02-10T00:39:31.668Z,0
2017-02-10T00:40:12.354Z,0
2017-02-10T00:40:52.999Z,0
2017-02-10T00:41:33.579Z,0
2017-02-10T00:42:14.255Z,0
2017-02-10T00:42:54.950Z,0
2017-02-10T00:43:35.606Z,0
2017-02-10T00:44:16.206Z,0
2017-02-10T00:44:56.909Z,0
2017-02-10T00:45:37.562Z,0
2017-02-10T00:46:18.135Z,0
2017-02-10T00:46:58.792Z,0
2017-02-10T00:47:39.426Z,0
2017-02-10T00:48:19.992Z,0
2017-02-10T00:49:00.621Z,0
2017-02-10T00:49:41.285Z,0
2017-02-10T00:50:21.941Z,0
2017-02-10T00:51:02.580Z,0
2017-02-10T00:51:43.244Z,0
2017-02-10T00:52:23.894Z,0
2017-02-10T00:53:04.565Z,0
2017-02-10T00:53:45.125Z,0
2017-02-10T00:54:25.808Z,0
2017-02-10T00:55:06.497Z,0
2017-02-10T00:55:47.170Z,0
2017-02-10T00:56:27.737Z,0
2017-02-10T00:57:08.415Z,0
2017-02-10T00:57:49.108Z,0
2017-02-10T00:58:29.759Z,0
2017-02-10T00:59:10.417Z,0
2017-02-10T00:59:51.078Z,0
2017-02-10T01:00:31.740Z,0
2017-02-10T01:01:12.376Z,0
2017-02-10T01:01:53.031Z,0
2017-02-10T01:02:33.683Z,0
2017-02-10T01:03:14.344Z,0
2017-02-10T01:03:54.896Z,0
2017-02-10T01:04:35.542Z,0
2017-02-10T01:05:16.192Z,0
2017-02-10T01:05:56.750Z,0
2017-02-10T01:06:37.403Z,0
2017-02-10T01:07:18.055Z,0
2017-02-10T01:07:58.618Z,0
2017-02-10T01:08:39.354Z,0
2017-02-10T01:09:20.018Z,0
2017-02-10T01:10:00.574Z,0
2017-02-10T01:10:41.243Z,0
2017-02-10T01:11:21.874Z,0
2017-02-10T01:12:02.520Z,0
2017-02-10T01:12:43.067Z,0
2017-02-10T01:13:23.776Z,0
2017-02-10T01:14:04.467Z,0
2017-02-10T01:14:45.121Z,0
2017-02-10T01:15:25.689Z,0
2017-02-10T01:16:06.423Z,0
2017-02-10T01:16:47.080Z,0
2017-02-10T01:17:27.732Z,0
2017-02-10T01:18:08.492Z,0
2017-02-10T01:18:49.146Z,0
2017-02-10T01:19:29.791Z,0
2017-02-10T01:20:10.463Z,0
2017-02-10T01:20:51.100Z,0
2017-02-10T01:21:31.716Z,0
2017-02-10T01:22:12.408Z,0
2017-02-10T01:22:53.072Z,0
2017-02-10T01:23:33.723Z,0
2017-02-10T01:24:14.288Z,0
2017-02-10T01:24:54.978Z,0
2017-02-10T01:25:35.689Z,0
2017-02-10T01:26:16.324Z,0
2017-02-10T01:26:56.881Z,0
2017-02-10T01:27:37.542Z,0
2017-02-10T01:28:18.201Z,0
2017-02-10T01:28:58.831Z,0
2017-02-10T01:29:39.399Z,0
2017-02-10T01:30:20.147Z,0
2017-02-10T01:31:00.810Z,0
2017-02-10T01:31:41.376Z,0
2017-02-10T01:32:21.981Z,0
2017-02-10T01:33:02.649Z,0
2017-02-10T01:33:43.230Z,0
2017-02-10T01:34:23.850Z,0
2017-02-10T01:35:04.515Z,0
2017-02-10T01:35:45.077Z,0
2017-02-10T01:36:25.712Z,0
2017-02-10T01:37:06.366Z,0
2017-02-10T01:37:46.934Z,0
2017-02-10T01:38:27.573Z,0
2017-02-10T01:39:08.225Z,0
2017-02-10T01:39:48.788Z,0
2017-02-10T01:40:29.494Z,0
2017-02-10T01:41:10.177Z,0
2017-02-10T01:41:50.839Z,0
2017-02-10T01:42:31.428Z,0
2017-02-10T01:43:12.096Z,0
2017-02-10T01:43:52.808Z,0
2017-02-10T01:44:33.452Z,0
2017-02-10T01:45:14.104Z,0
2017-02-10T01:45:54.767Z,0
2017-02-10T01:46:35.415Z,0
2017-02-10T01:47:16.068Z,0
2017-02-10T01:47:56.723Z,0
2017-02-10T01:48:37.264Z,0
2017-02-10T01:49:17.976Z,0
2017-02-10T01:49:58.705Z,0
2017-02-10T01:50:39.326Z,0
2017-02-10T01:51:19.899Z,0
2017-02-10T01:52:00.596Z,0
2017-02-10T01:52:41.283Z,0
2017-02-10T01:53:21.944Z,0
2017-02-10T01:54:02.600Z,0
2017-02-10T01:54:43.246Z,0
2017-02-10T01:55:23.899Z,0
2017-02-10T01:56:04.652Z,0
2017-02-10T01:56:45.302Z,0
2017-02-10T01:57:25.961Z,0
2017-02-10T01:58:06.617Z,0
2017-02-10T01:58:47.271Z,0
2017-02-10T01:59:27.916Z,0
2017-02-10T02:00:08.575Z,0
2017-02-10T02:00:49.229Z,0
2017-02-10T02:01:29.873Z,0
2017-02-10T02:02:10.534Z,0
2017-02-10T02:02:51.184Z,0
2017-02-10T02:03:31.744Z,0
2017-02-10T02:04:12.453Z,0
2017-02-10T02:04:53.150Z,0
2017-02-10T02:05:33.791Z,0
2017-02-10T02:06:14.354Z,0
2017-02-10T02:06:55.058Z,0
2017-02-10T02:07:35.762Z,0
2017-02-10T02:08:16.411Z,0
2017-02-10T02:08:57.059Z,0
2017-02-10T02:09:37.713Z,0
2017-02-10T02:10:18.366Z,0
2017-02-10T02:10:59.019Z,0
2017-02-10T02:11:39.776Z,0
2017-02-10T02:12:20.434Z,0
2017-02-10T02:13:01.081Z,0
2017-02-10T02:13:41.738Z,0
2017-02-10T02:14:22.390Z,0
2017-02-10T02:15:03.149Z,0
2017-02-10T02:15:43.799Z,0
2017-02-10T02:16:24.463Z,0
2017-02-10T02:17:05.107Z,0
2017-02-10T02:17:45.766Z,0
2017-02-10T02:18:26.335Z,0
2017-02-10T02:19:07.036Z,0
2017-02-10T02:19:47.722Z,0
2017-02-10T02:20:28.370Z,0
2017-02-10T02:21:08.931Z,0
2017-02-10T02:21:49.622Z,0
2017-02-10T02:22:30.320Z,0
2017-02-10T02:23:10.981Z,0
2017-02-10T02:23:51.633Z,0
2017-02-10T02:24:32.311Z,0
2017-02-10T02:25:12.939Z,0
2017-02-10T02:25:53.592Z,0
2017-02-10T02:26:34.246Z,0
2017-02-10T02:27:14.899Z,0
2017-02-10T02:27:55.551Z,0
2017-02-10T02:28:36.201Z,0
2017-02-10T02:29:16.857Z,0
2017-02-10T02:29:57.511Z,0
2017-02-10T02:30:38.164Z,0
2017-02-10T02:31:18.811Z,0
2017-02-10T02:31:59.476Z,0
2017-02-10T02:32:40.122Z,0
2017-02-10T02:33:20.775Z,0
2017-02-10T02:34:01.335Z,0
2017-02-10T02:34:41.919Z,0
2017-02-10T02:35:22.623Z,0
2017-02-10T02:36:03.279Z,0
2017-02-10T02:36:43.841Z,0
2017-02-10T02:37:24.563Z,0
2017-02-10T02:38:05.263Z,0
2017-02-10T02:38:46.001Z,0
2017-02-10T02:39:26.657Z,0
2017-02-10T02:40:07.299Z,0
2017-02-10T02:40:47.953Z,0
2017-02-10T02:41:28.608Z,0
2017-02-10T02:42:09.260Z,0
2017-02-10T02:42:49.911Z,0
2017-02-10T02:43:30.561Z,0
2017-02-10T02:44:11.225Z,0
2017-02-10T02:44:51.878Z,0
2017-02-10T02:45:32.534Z,0
2017-02-10T02:46:13.179Z,0
2017-02-10T02:46:53.828Z,0
2017-02-10T02:47:34.585Z,0
2017-02-10T02:48:15.244Z,0
2017-02-10T02:48:55.825Z,0
2017-02-10T02:49:36.554Z,0
2017-02-10T02:50:17.205Z,0
2017-02-10T02:50:57.762Z,0
2017-02-10T02:51:38.510Z,0
2017-02-10T02:52:19.165Z,0
2017-02-10T02:52:59.730Z,0
2017-02-10T02:53:40.457Z,0
2017-02-10T02:54:21.121Z,0
2017-02-10T02:55:01.689Z,0
2017-02-10T02:55:42.431Z,0
2017-02-10T02:56:23.172Z,0
2017-02-10T02:57:03.746Z,0
2017-02-10T02:57:44.403Z,0
2017-02-10T02:58:25.134Z,0
2017-02-10T02:59:05.784Z,0
2017-02-10T02:59:46.440Z,0
2017-02-10T03:00:27.098Z,0
2017-02-10T03:01:07.750Z,0
2017-02-10T03:01:48.499Z,0
2017-02-10T03:02:29.159Z,0
2017-02-10T03:03:09.804Z,0
2017-02-10T03:03:50.464Z,0
2017-02-10T03:04:31.216Z,0
2017-02-10T03:05:11.876Z,0
2017-02-10T03:05:52.526Z,0
2017-02-10T03:06:33.179Z,0
2017-02-10T03:07:13.933Z,0
2017-02-10T03:07:54.581Z,0
2017-02-10T03:08:35.159Z,0
2017-02-10T03:09:15.905Z,0
2017-02-10T03:09:56.652Z,0
2017-02-10T03:10:37.226Z,0
2017-02-10T03:11:17.953Z,0
2017-02-10T03:11:58.607Z,0
2017-02-10T03:12:39.161Z,0
2017-02-10T03:13:19.912Z,0
2017-02-10T03:14:00.567Z,0
2017-02-10T03:14:41.136Z,0
2017-02-10T03:15:21.834Z,0
2017-02-10T03:16:02.526Z,0
2017-02-10T03:16:43.100Z,0
2017-02-10T03:17:23.831Z,0
2017-02-10T03:18:04.484Z,0
2017-02-10T03:18:45.036Z,0
2017-02-10T03:19:25.749Z,0
2017-02-10T03:20:06.442Z,0
2017-02-10T03:20:47.193Z,0
2017-02-10T03:21:27.767Z,0
2017-02-10T03:22:08.453Z,0
2017-02-10T03:22:49.158Z,0
2017-02-10T03:23:29.809Z,0
2017-02-10T03:24:10.562Z,0
2017-02-10T03:24:51.222Z,0
2017-02-10T03:25:31.867Z,0
2017-02-10T03:26:12.517Z,0
2017-02-10T03:26:53.173Z,0
2017-02-10T03:27:33.933Z,0
2017-02-10T03:28:14.681Z,0
2017-02-10T03:28:55.335Z,0
2017-02-10T03:29:35.993Z,0
2017-02-10T03:30:16.651Z,0
2017-02-10T03:30:57.423Z,0
2017-02-10T03:31:38.057Z,0
2017-02-10T03:32:18.703Z,0
2017-02-10T03:32:59.355Z,0
2017-02-10T03:33:40.009Z,0
2017-02-10T03:34:20.560Z,0
2017-02-10T03:35:01.267Z,0
2017-02-10T03:35:41.967Z,0
2017-02-10T03:36:22.623Z,0
2017-02-10T03:37:03.175Z,0
2017-02-10T03:37:43.878Z,0
2017-02-10T03:38:24.474Z,0
2017-02-10T03:39:05.128Z,0
2017-02-10T03:39:45.710Z,0
2017-02-10T03:40:26.390Z,0
2017-02-10T03:41:07.087Z,0
2017-02-10T03:41:47.740Z,0
2017-02-10T03:42:28.294Z,0
2017-02-10T03:43:09.017Z,0
2017-02-10T03:43:49.698Z,0
2017-02-10T03:44:30.360Z,0
2017-02-10T03:45:11.116Z,0
2017-02-10T03:45:51.768Z,0
2017-02-10T03:46:32.416Z,0
2017-02-10T03:47:13.073Z,0
2017-02-10T03:47:53.722Z,0
2017-02-10T03:48:34.370Z,0
2017-02-10T03:49:14.945Z,0
2017-02-10T03:49:55.646Z,0
2017-02-10T03:50:36.328Z,0
2017-02-10T03:51:16.984Z,0
2017-02-10T03:51:57.535Z,0
2017-02-10T03:52:38.237Z,0
2017-02-10T03:53:18.941Z,0
2017-02-10T03:53:59.604Z,0
2017-02-10T03:54:40.251Z,0
2017-02-10T03:55:21.007Z,0
2017-02-10T03:56:01.663Z,0
2017-02-10T03:56:42.414Z,0
2017-02-10T03:57:23.167Z,0
2017-02-10T03:58:03.822Z,0
2017-02-10T03:58:44.578Z,0
2017-02-10T03:59:25.228Z,0
2017-02-10T04:00:05.880Z,0
2017-02-10T04:00:46.536Z,0
2017-02-10T04:01:27.198Z,0
2017-02-10T04:02:07.943Z,0
2017-02-10T04:02:48.595Z,0
2017-02-10T04:03:29.247Z,0
2017-02-10T04:04:09.799Z,0
2017-02-10T04:04:50.519Z,0
2017-02-10T04:05:31.209Z,0
2017-02-10T04:06:11.960Z,0
2017-02-10T04:06:52.515Z,0
2017-02-10T04:07:33.154Z,0
2017-02-10T04:08:13.816Z,0
2017-02-10T04:08:54.468Z,0
2017-02-10T04:09:35.040Z,0
2017-02-10T04:10:15.748Z,0
2017-02-10T04:10:56.429Z,0
2017-02-10T04:11:37.080Z,0
2017-02-10T04:12:17.632Z,0
2017-02-10T04:12:58.341Z,0
2017-02-10T04:13:39.039Z,0
2017-02-10T04:14:19.704Z,0
2017-02-10T04:15:00.279Z,0
2017-02-10T04:15:40.951Z,0
2017-02-10T04:16:21.663Z,0
2017-02-10T04:17:02.407Z,0
2017-02-10T04:17:42.983Z,0
2017-02-10T04:18:23.680Z,0
2017-02-10T04:19:04.384Z,0
2017-02-10T04:19:45.124Z,0
2017-02-10T04:20:25.881Z,0
2017-02-10T04:21:06.530Z,0
2017-02-10T04:21:47.289Z,0
2017-02-10T04:22:28.042Z,0
2017-02-10T04:23:08.814Z,0
2017-02-10T04:23:49.554Z,0
2017-02-10T04:24:30.214Z,0
2017-02-10T04:25:10.971Z,0
2017-02-10T04:25:51.740Z,0
2017-02-10T04:26:32.470Z,0
2017-02-10T04:27:13.237Z,0
2017-02-10T04:27:53.997Z,0
2017-02-10T04:28:34.745Z,0
2017-02-10T04:29:15.501Z,0
2017-02-10T04:29:56.262Z,0
2017-02-10T04:30:37.009Z,0
2017-02-10T04:31:17.771Z,0
2017-02-10T04:31:58.535Z,0
2017-02-10T04:32:39.280Z,0
2017-02-10T04:33:20.027Z,0
2017-02-10T04:34:00.789Z,0
2017-02-10T04:34:41.549Z,0
2017-02-10T04:35:22.306Z,0
2017-02-10T04:36:03.064Z,0
2017-02-10T04:36:43.816Z,0
2017-02-10T04:37:24.569Z,0
2017-02-10T04:38:05.324Z,0
2017-02-10T04:38:45.897Z,0
2017-02-10T04:39:26.581Z,0
2017-02-10T04:40:07.279Z,0
2017-02-10T04:40:48.030Z,0
2017-02-10T04:41:28.597Z,0
2017-02-10T04:42:09.287Z,0
2017-02-10T04:42:49.983Z,0
2017-02-10T04:43:30.760Z,0
2017-02-10T04:44:11.333Z,0
2017-02-10T04:44:52.050Z,0
2017-02-10T04:45:32.819Z,0
2017-02-10T04:46:13.395Z,0
2017-02-10T04:46:54.100Z,0
2017-02-10T04:47:34.771Z,0
2017-02-10T04:48:15.331Z,0
2017-02-10T04:48:56.056Z,0
2017-02-10T04:49:36.731Z,0
2017-02-10T04:50:17.291Z,0
2017-02-10T04:50:58.019Z,0
2017-02-10T04:51:38.769Z,0
2017-02-10T04:52:19.444Z,0
2017-02-10T04:53:00.013Z,0
2017-02-10T04:53:40.675Z,0
2017-02-10T04:54:21.387Z,0
2017-02-10T04:55:02.058Z,0
2017-02-10T04:55:42.626Z,84
2017-02-10T04:56:23.305Z,80
2017-02-10T04:57:04.022Z,0
2017-02-10T04:57:44.773Z,0
2017-02-10T04:58:25.328Z,0
2017-02-10T04:59:06.025Z,0
2017-02-10T04:59:46.734Z,0
2017-02-10T05:00:27.309Z,0
2017-02-10T05:01:08.037Z,0
2017-02-10T05:01:48.791Z,0
2017-02-10T05:02:29.340Z,0
2017-02-10T05:03:10.100Z,0
2017-02-10T05:03:50.848Z,0
2017-02-10T05:04:31.404Z,0
2017-02-10T05:05:12.134Z,0
2017-02-10T05:05:52.812Z,0
2017-02-10T05:06:33.562Z,0
2017-02-10T05:07:14.131Z,0
2017-02-10T05:07:54.819Z,0
2017-02-10T05:08:35.532Z,0
2017-02-10T05:09:16.281Z,0
2017-02-10T05:09:57.037Z,0
2017-02-10T05:10:37.791Z,0
2017-02-10T05:11:18.544Z,0
2017-02-10T05:11:59.313Z,0
2017-02-10T05:12:40.056Z,0
2017-02-10T05:13:20.809Z,72
2017-02-10T05:14:01.567Z,0
2017-02-10T05:14:42.322Z,0
2017-02-10T05:15:23.071Z,0
2017-02-10T05:16:03.834Z,0
2017-02-10T05:16:44.581Z,0
2017-02-10T05:17:25.153Z,0
2017-02-10T05:18:05.893Z,0
2017-02-10T05:18:46.643Z,0
2017-02-10T05:19:27.193Z,0
2017-02-10T05:20:07.948Z,0
2017-02-10T05:20:48.707Z,0
2017-02-10T05:21:29.302Z,0
2017-02-10T05:22:10.024Z,0
2017-02-10T05:22:50.772Z,0
2017-02-10T05:23:31.366Z,0
2017-02-10T05:24:12.089Z,0
2017-02-10T05:24:52.834Z,0
2017-02-10T05:25:33.422Z,0
2017-02-10T05:26:14.139Z,0
2017-02-10T05:26:54.888Z,0
2017-02-10T05:27:35.449Z,0
2017-02-10T05:28:16.198Z,0
2017-02-10T05:28:56.971Z,0
2017-02-10T05:29:37.717Z,0
2017-02-10T05:30:18.459Z,0
2017-02-10T05:30:59.220Z,0
2017-02-10T05:31:39.978Z,0
2017-02-10T05:32:20.743Z,0
2017-02-10T05:33:01.486Z,76
2017-02-10T05:33:42.250Z,0
2017-02-10T05:34:22.997Z,0
2017-02-10T05:35:03.657Z,0
2017-02-10T05:35:44.413Z,0
2017-02-10T05:36:25.158Z,0
2017-02-10T05:37:05.912Z,0
2017-02-10T05:37:46.678Z,0
2017-02-10T05:38:27.425Z,0
2017-02-10T05:39:08.181Z,0
2017-02-10T05:39:48.940Z,0
2017-02-10T05:40:29.692Z,0
2017-02-10T05:41:10.454Z,0
2017-02-10T05:41:51.205Z,0
2017-02-10T05:42:31.958Z,0
2017-02-10T05:43:12.712Z,0
2017-02-10T05:43:53.475Z,0
2017-02-10T05:44:34.221Z,0
2017-02-10T05:45:14.802Z,0
2017-02-10T05:45:55.536Z,0
2017-02-10T05:46:36.289Z,0
2017-02-10T05:47:17.042Z,0
2017-02-10T05:47:57.798Z,0
2017-02-10T05:48:38.560Z,0
2017-02-10T05:49:19.307Z,0
2017-02-10T05:50:00.062Z,0
2017-02-10T05:50:40.818Z,0
2017-02-10T05:51:21.576Z,0
2017-02-10T05:52:02.330Z,0
2017-02-10T05:52:43.086Z,0
2017-02-10T05:53:23.841Z,0
2017-02-10T05:54:04.591Z,0
2017-02-10T05:54:45.360Z,0
2017-02-10T05:55:26.104Z,0
2017-02-10T05:56:06.863Z,0
2017-02-10T05:56:47.611Z,0
2017-02-10T05:57:28.371Z,0
2017-02-10T05:58:09.128Z,0
2017-02-10T05:58:49.879Z,0
2017-02-10T05:59:30.637Z,0
2017-02-10T06:00:11.395Z,0
2017-02-10T06:00:52.158Z,0
2017-02-10T06:01:32.903Z,0
2017-02-10T06:02:13.673Z,0
2017-02-10T06:02:54.414Z,0
2017-02-10T06:03:35.174Z,0
2017-02-10T06:04:15.935Z,0
2017-02-10T06:04:56.679Z,0
2017-02-10T06:05:37.437Z,0
2017-02-10T06:06:18.195Z,0
2017-02-10T06:06:58.945Z,0
2017-02-10T06:07:39.700Z,0
2017-02-10T06:08:20.449Z,0
2017-02-10T06:09:01.216Z,0
2017-02-10T06:09:41.967Z,0
2017-02-10T06:10:22.722Z,0
2017-02-10T06:11:03.478Z,0
2017-02-10T06:11:44.240Z,0
2017-02-10T06:12:24.996Z,0
2017-02-10T06:13:05.737Z,0
2017-02-10T06:13:46.507Z,0
2017-02-10T06:14:27.079Z,0
2017-02-10T06:15:07.803Z,0
2017-02-10T06:15:48.556Z,0
2017-02-10T06:16:29.125Z,0
2017-02-10T06:17:09.857Z,0
2017-02-10T06:17:50.629Z,0
2017-02-10T06:18:31.192Z,0
2017-02-10T06:19:11.927Z,0
2017-02-10T06:19:52.498Z,0
2017-02-10T06:20:33.243Z,0
2017-02-10T06:21:13.982Z,0
2017-02-10T06:21:54.558Z,0
2017-02-10T06:22:35.290Z,0
2017-02-10T06:23:16.053Z,0
2017-02-10T06:23:56.622Z,0
2017-02-10T06:24:37.357Z,0
2017-02-10T06:25:18.126Z,0
2017-02-10T06:25:58.873Z,0
2017-02-10T06:26:39.619Z,0
2017-02-10T06:27:20.282Z,0
2017-02-10T06:28:01.037Z,0
2017-02-10T06:28:41.688Z,0
2017-02-10T06:29:22.446Z,0
2017-02-10T06:30:03.201Z,0
2017-02-10T06:30:43.955Z,0
2017-02-10T06:31:24.714Z,4
2017-02-10T06:32:05.485Z,4
2017-02-10T06:32:46.215Z,4
2017-02-10T06:33:26.800Z,4
2017-02-10T06:34:07.549Z,4
2017-02-10T06:34:48.172Z,0
2017-02-10T06:35:28.875Z,0
2017-02-10T06:36:09.584Z,4
2017-02-10T06:36:50.343Z,4
2017-02-10T06:37:30.915Z,4
2017-02-10T06:38:11.699Z,4
2017-02-10T06:38:52.426Z,8
2017-02-10T06:39:33.160Z,4
2017-02-10T06:40:13.763Z,8
2017-02-10T06:40:54.514Z,8
2017-02-10T06:41:35.217Z,8
2017-02-10T06:42:15.980Z,4
2017-02-10T06:42:56.548Z,8
2017-02-10T06:43:37.307Z,4
2017-02-10T06:44:18.038Z,8
2017-02-10T06:44:58.789Z,8
2017-02-10T06:45:39.545Z,12
2017-02-10T06:46:20.298Z,8
2017-02-10T06:47:01.068Z,12
2017-02-10T06:47:41.950Z,12
2017-02-10T06:48:22.567Z,12
2017-02-10T06:49:03.212Z,12
2017-02-10T06:49:43.911Z,12
2017-02-10T06:50:24.484Z,12
2017-02-10T06:51:05.071Z,20
2017-02-10T06:51:45.731Z,20
2017-02-10T06:52:26.292Z,20
2017-02-10T06:53:07.038Z,20
2017-02-10T06:53:47.688Z,20
2017-02-10T06:54:28.256Z,20
2017-02-10T06:55:08.917Z,20
2017-02-10T06:55:49.545Z,24
2017-02-10T06:56:30.195Z,24
2017-02-10T06:57:10.857Z,28
2017-02-10T06:57:51.505Z,28
2017-02-10T06:58:32.157Z,28
2017-02-10T06:59:12.808Z,28
2017-02-10T06:59:53.472Z,36
2017-02-10T07:00:34.111Z,36
2017-02-10T07:01:14.764Z,40
2017-02-10T07:01:55.425Z,40
2017-02-10T07:02:36.066Z,40
2017-02-10T07:03:16.732Z,40
2017-02-10T07:03:57.387Z,44
2017-02-10T07:04:38.038Z,48
2017-02-10T07:05:18.688Z,48
2017-02-10T07:05:59.345Z,52
2017-02-10T07:06:39.923Z,56
2017-02-10T07:07:20.535Z,56
2017-02-10T07:08:01.188Z,60
2017-02-10T07:08:41.853Z,64
2017-02-10T07:09:22.507Z,60
2017-02-10T07:10:03.159Z,64
2017-02-10T07:10:43.728Z,68
2017-02-10T07:11:24.383Z,68
2017-02-10T07:12:05.104Z,76
2017-02-10T07:12:45.695Z,76
2017-02-10T07:13:26.314Z,80
2017-02-10T07:14:06.976Z,80
2017-02-10T07:14:47.626Z,84
2017-02-10T07:15:28.272Z,84
2017-02-10T07:16:08.932Z,84
2017-02-10T07:16:49.581Z,88
2017-02-10T07:17:30.230Z,88
2017-02-10T07:18:10.883Z,92
2017-02-10T07:18:51.539Z,96
2017-02-10T07:19:32.114Z,96
2017-02-10T07:20:12.788Z,104
2017-02-10T07:20:53.393Z,108
2017-02-10T07:21:34.050Z,112
2017-02-10T07:22:14.615Z,124
2017-02-10T07:22:55.305Z,132
2017-02-10T07:23:35.937Z,140
2017-02-10T07:24:16.561Z,156
2017-02-10T07:24:57.208Z,164
2017-02-10T07:25:37.866Z,184
2017-02-10T07:26:18.522Z,204
2017-02-10T07:26:59.167Z,220
2017-02-10T07:27:39.820Z,232
2017-02-10T07:28:20.481Z,244
2017-02-10T07:29:01.131Z,256
2017-02-10T07:29:41.785Z,268
2017-02-10T07:30:22.461Z,284
2017-02-10T07:31:03.158Z,304
2017-02-10T07:31:43.888Z,316
2017-02-10T07:32:24.546Z,332
2017-02-10T07:33:05.215Z,348
2017-02-10T07:33:45.950Z,372
2017-02-10T07:34:26.491Z,388
2017-02-10T07:35:07.152Z,396
2017-02-10T07:35:47.834Z,396
2017-02-10T07:36:28.402Z,396
2017-02-10T07:37:09.111Z,392
2017-02-10T07:37:49.872Z,396
2017-02-10T07:38:30.439Z,404
2017-02-10T07:39:11.148Z,404
2017-02-10T07:39:51.835Z,400
2017-02-10T07:40:32.485Z,400
2017-02-10T07:41:13.254Z,388
2017-02-10T07:41:53.892Z,384
2017-02-10T07:42:34.649Z,380
2017-02-10T07:43:15.451Z,380
2017-02-10T07:43:56.158Z,388
2017-02-10T07:44:36.725Z,396
2017-02-10T07:45:17.429Z,404
2017-02-10T07:45:58.120Z,416
2017-02-10T07:46:38.836Z,416
2017-02-10T07:47:19.417Z,416
2017-02-10T07:48:00.093Z,424
2017-02-10T07:48:40.802Z,432
2017-02-10T07:49:21.452Z,436
2017-02-10T07:50:02.108Z,440
2017-02-10T07:50:42.752Z,440
2017-02-10T07:51:23.405Z,452
2017-02-10T07:52:04.025Z,464
2017-02-10T07:52:44.711Z,472
2017-02-10T07:53:25.401Z,488
2017-02-10T07:54:06.120Z,512
2017-02-10T07:54:46.775Z,528
2017-02-10T07:55:27.424Z,544
2017-02-10T07:56:08.081Z,552
2017-02-10T07:56:48.753Z,564
2017-02-10T07:57:29.380Z,576
2017-02-10T07:58:10.037Z,580
2017-02-10T07:58:50.691Z,580
2017-02-10T07:59:31.340Z,580
2017-02-10T08:00:12.121Z,576
2017-02-10T08:00:52.762Z,572
2017-02-10T08:01:33.403Z,580
2017-02-10T08:02:14.094Z,596
2017-02-10T08:02:54.810Z,632
2017-02-10T08:03:35.463Z,652
2017-02-10T08:04:16.117Z,664
2017-02-10T08:04:57.119Z,680
2017-02-10T08:05:37.726Z,692
2017-02-10T08:06:18.400Z,696
2017-02-10T08:06:59.054Z,684
2017-02-10T08:07:39.686Z,680
2017-02-10T08:08:20.339Z,700
2017-02-10T08:09:00.995Z,700
2017-02-10T08:09:41.650Z,704
2017-02-10T08:10:22.298Z,704
2017-02-10T08:11:02.952Z,712
2017-02-10T08:11:43.600Z,724
2017-02-10T08:12:24.256Z,732
2017-02-10T08:13:04.911Z,748
2017-02-10T08:13:45.584Z,756
2017-02-10T08:14:26.214Z,768
2017-02-10T08:15:06.865Z,768
2017-02-10T08:15:47.528Z,788
2017-02-10T08:16:28.170Z,808
2017-02-10T08:17:09.864Z,824
2017-02-10T08:17:50.504Z,832
2017-02-10T08:18:31.158Z,836
2017-02-10T08:19:11.817Z,840
2017-02-10T08:19:52.408Z,836
2017-02-10T08:20:33.065Z,848
2017-02-10T08:21:13.668Z,872
2017-02-10T08:21:54.324Z,896
2017-02-10T08:22:34.897Z,912
2017-02-10T08:23:15.485Z,928
2017-02-10T08:23:56.071Z,944
2017-02-10T08:24:36.728Z,1048
2017-02-10T08:25:17.293Z,1056
2017-02-10T08:25:57.881Z,1008
2017-02-10T08:26:38.493Z,1032
2017-02-10T08:27:19.132Z,1032
2017-02-10T08:27:59.721Z,1012
2017-02-10T08:28:40.286Z,936
2017-02-10T08:29:20.890Z,872
2017-02-10T08:30:01.553Z,880
2017-02-10T08:30:42.100Z,928
2017-02-10T08:31:22.705Z,972
2017-02-10T08:32:03.303Z,996
2017-02-10T08:32:43.984Z,1004
2017-02-10T08:33:24.525Z,1004
2017-02-10T08:34:05.223Z,984
2017-02-10T08:34:45.906Z,952
2017-02-10T08:35:26.473Z,920
2017-02-10T08:36:07.112Z,872
2017-02-10T08:36:47.767Z,856
2017-02-10T08:37:28.345Z,876
2017-02-10T08:38:08.968Z,908
2017-02-10T08:38:49.560Z,924
2017-02-10T08:39:30.136Z,892
2017-02-10T08:40:10.781Z,864
2017-02-10T08:40:51.432Z,864
2017-02-10T08:41:32.020Z,876
2017-02-10T08:42:12.706Z,880
2017-02-10T08:42:53.273Z,848
2017-02-10T08:43:33.928Z,836
2017-02-10T08:44:14.515Z,864
2017-02-10T08:44:55.207Z,900
2017-02-10T08:45:35.883Z,940
2017-02-10T08:46:16.536Z,968
2017-02-10T08:46:57.090Z,980
2017-02-10T08:47:37.687Z,980
2017-02-10T08:48:18.258Z,992
2017-02-10T08:48:58.842Z,1008
2017-02-10T08:49:39.411Z,1020
2017-02-10T08:50:20.038Z,1008
2017-02-10T08:51:00.699Z,984
2017-02-10T08:51:41.268Z,1044
2017-02-10T08:52:21.902Z,1056
2017-02-10T08:53:02.553Z,984
2017-02-10T08:53:43.120Z,1000
2017-02-10T08:54:23.751Z,1008
2017-02-10T08:55:04.406Z,1032
2017-02-10T08:55:45.002Z,1076
2017-02-10T08:56:26.588Z,1124
2017-02-10T08:57:07.177Z,1164
2017-02-10T08:57:47.737Z,1172
2017-02-10T08:58:28.304Z,1164
2017-02-10T08:59:08.866Z,1160
2017-02-10T08:59:49.462Z,1172
2017-02-10T09:00:30.048Z,1212
2017-02-10T09:01:10.693Z,1260
2017-02-10T09:01:51.254Z,1276
2017-02-10T09:02:31.862Z,1244
2017-02-10T09:03:12.463Z,1200
2017-02-10T09:03:54.021Z,1148
2017-02-10T09:04:34.613Z,1152
2017-02-10T09:05:15.216Z,1176
2017-02-10T09:05:55.880Z,1168
2017-02-10T09:06:36.551Z,1136
2017-02-10T09:07:17.197Z,1104
2017-02-10T09:07:57.834Z,1088
2017-02-10T09:08:38.506Z,1092
2017-02-10T09:09:19.203Z,1100
2017-02-10T09:09:59.770Z,1128
2017-02-10T09:10:40.395Z,1176
2017-02-10T09:11:20.995Z,1216
2017-02-10T09:12:01.655Z,1236
2017-02-10T09:12:42.241Z,1256
2017-02-10T09:13:22.979Z,1280
2017-02-10T09:14:03.606Z,1296
2017-02-10T09:14:44.264Z,1292
2017-02-10T09:15:24.914Z,1288
2017-02-10T09:16:05.564Z,1280
2017-02-10T09:16:46.230Z,1288
2017-02-10T09:17:26.913Z,1300
2017-02-10T09:18:07.530Z,1308
2017-02-10T09:18:48.179Z,1316
2017-02-10T09:19:28.838Z,1300
2017-02-10T09:20:09.388Z,1320
2017-02-10T09:20:50.053Z,1376
2017-02-10T09:21:30.689Z,1440
2017-02-10T09:22:11.246Z,1472
2017-02-10T09:22:51.829Z,1544
2017-02-10T09:23:32.474Z,1452
2017-02-10T09:24:13.030Z,1436
2017-02-10T09:24:53.634Z,1428
2017-02-10T09:25:34.312Z,1428
2017-02-10T09:26:14.968Z,1436
2017-02-10T09:26:57.548Z,1456
2017-02-10T09:27:38.192Z,1448
2017-02-10T09:28:18.855Z,1416
2017-02-10T09:28:59.510Z,1440
2017-02-10T09:29:40.175Z,1496
2017-02-10T09:30:21.759Z,1528
2017-02-10T09:31:02.298Z,1540
2017-02-10T09:31:42.917Z,1552
2017-02-10T09:32:23.487Z,1572
2017-02-10T09:33:04.145Z,1600
2017-02-10T09:33:44.726Z,1636
2017-02-10T09:34:25.322Z,1700
2017-02-10T09:35:05.908Z,1740
2017-02-10T09:35:46.545Z,1740
2017-02-10T09:36:27.123Z,1776
2017-02-10T09:37:07.722Z,1884
2017-02-10T09:37:48.289Z,2024
2017-02-10T09:38:28.957Z,2124
2017-02-10T09:39:09.553Z,2152
2017-02-10T09:39:50.263Z,2184
2017-02-10T09:40:30.911Z,2200
2017-02-10T09:41:11.568Z,2188
2017-02-10T09:41:52.217Z,2168
2017-02-10T09:42:32.879Z,2156
2017-02-10T09:43:13.526Z,2132
2017-02-10T09:43:54.177Z,2072
2017-02-10T09:44:34.837Z,2020
2017-02-10T09:45:15.418Z,1972
2017-02-10T09:45:56.018Z,1936
2017-02-10T09:46:36.715Z,1932
2017-02-10T09:47:17.338Z,1928